sensor_id;sensor_type;location;lat;lon;timestamp;pressure;altitude;pressure_sealevel;temperature;humidity
30110;BME280;14965;50.660;13.226;2023-02-18T00:00:10;95046.25;;;6.82;100.00
30110;BME280;14965;50.660;13.226;2023-02-18T00:02:36;95054.47;;;6.82;100.00
30110;BME280;14965;50.660;13.226;2023-02-18T00:05:04;95067.09;;;6.76;100.00
30110;BME280;14965;50.660;13.226;2023-02-18T00:07:33;95073.03;;;6.70;100.00
30110;BME280;14965;50.660;13.226;2023-02-18T00:09:59;95077.03;;;6.62;100.00
30110;BME280;14965;50.660;13.226;2023-02-18T00:12:25;95070.78;;;6.58;100.00
30110;BME280;14965;50.660;13.226;2023-02-18T00:14:51;95073.16;;;6.56;100.00
30110;BME280;14965;50.660;13.226;2023-02-18T00:17:17;95078.25;;;6.58;100.00
30110;BME280;14965;50.660;13.226;2023-02-18T00:19:43;95074.34;;;6.55;100.00
30110;BME280;14965;50.660;13.226;2023-02-18T00:22:10;95075.13;;;6.56;100.00
30110;BME280;14965;50.660;13.226;2023-02-18T00:24:37;95076.72;;;6.53;100.00
30110;BME280;14965;50.660;13.226;2023-02-18T00:27:03;95072.47;;;6.48;100.00
30110;BME280;14965;50.660;13.226;2023-02-18T00:29:29;95065.84;;;6.42;100.00
30110;BME280;14965;50.660;13.226;2023-02-18T00:31:55;95074.88;;;6.39;100.00
30110;BME280;14965;50.660;13.226;2023-02-18T00:34:21;95069.03;;;6.37;100.00
30110;BME280;14965;50.660;13.226;2023-02-18T00:36:47;95076.50;;;6.37;100.00
30110;BME280;14965;50.660;13.226;2023-02-18T00:39:14;95077.28;;;6.37;100.00
30110;BME280;14965;50.660;13.226;2023-02-18T00:41:43;95085.91;;;6.36;100.00
30110;BME280;14965;50.660;13.226;2023-02-18T00:44:11;95081.22;;;6.33;100.00
30110;BME280;14965;50.660;13.226;2023-02-18T00:46:37;95083.97;;;6.33;100.00
30110;BME280;14965;50.660;13.226;2023-02-18T00:49:04;95076.16;;;6.31;100.00
30110;BME280;14965;50.660;13.226;2023-02-18T00:51:30;95084.81;;;6.26;100.00
30110;BME280;14965;50.660;13.226;2023-02-18T00:53:56;95089.94;;;6.24;100.00
30110;BME280;14965;50.660;13.226;2023-02-18T00:56:24;95093.13;;;6.19;100.00
30110;BME280;14965;50.660;13.226;2023-02-18T00:58:50;95099.00;;;6.17;100.00
30110;BME280;14965;50.660;13.226;2023-02-18T01:01:17;95095.88;;;6.15;100.00
30110;BME280;14965;50.660;13.226;2023-02-18T01:03:43;95099.03;;;6.10;100.00
30110;BME280;14965;50.660;13.226;2023-02-18T01:06:11;95094.34;;;6.11;100.00
30110;BME280;14965;50.660;13.226;2023-02-18T01:08:39;95079.84;;;6.10;100.00
30110;BME280;14965;50.660;13.226;2023-02-18T01:11:07;95090.44;;;6.08;100.00
30110;BME280;14965;50.660;13.226;2023-02-18T01:13:36;95091.63;;;6.07;100.00
30110;BME280;14965;50.660;13.226;2023-02-18T01:16:02;95088.13;;;6.07;100.00
30110;BME280;14965;50.660;13.226;2023-02-18T01:18:28;95086.16;;;6.07;100.00
30110;BME280;14965;50.660;13.226;2023-02-18T01:20:54;95083.41;;;6.07;100.00
30110;BME280;14965;50.660;13.226;2023-02-18T01:23:22;95091.66;;;6.04;100.00
30110;BME280;14965;50.660;13.226;2023-02-18T01:25:48;95084.63;;;6.03;100.00
30110;BME280;14965;50.660;13.226;2023-02-18T01:28:15;95079.50;;;6.05;100.00
30110;BME280;14965;50.660;13.226;2023-02-18T01:30:42;95090.88;;;6.03;100.00
30110;BME280;14965;50.660;13.226;2023-02-18T01:33:10;95092.88;;;5.99;100.00
30110;BME280;14965;50.660;13.226;2023-02-18T01:35:38;95096.00;;;5.97;100.00
30110;BME280;14965;50.660;13.226;2023-02-18T01:38:04;95092.88;;;5.99;100.00
30110;BME280;14965;50.660;13.226;2023-02-18T01:40:29;95091.69;;;6.00;100.00
30110;BME280;14965;50.660;13.226;2023-02-18T01:42:56;95088.59;;;5.98;100.00
30110;BME280;14965;50.660;13.226;2023-02-18T01:45:59;95095.63;;;5.99;100.00
30110;BME280;14965;50.660;13.226;2023-02-18T01:48:34;95087.78;;;5.97;100.00
30110;BME280;14965;50.660;13.226;2023-02-18T01:51:06;95095.22;;;5.97;100.00
30110;BME280;14965;50.660;13.226;2023-02-18T01:53:39;95081.91;;;5.99;100.00
30110;BME280;14965;50.660;13.226;2023-02-18T01:56:14;95083.91;;;5.95;100.00
30110;BME280;14965;50.660;13.226;2023-02-18T01:58:42;95071.75;;;5.96;100.00
30110;BME280;14965;50.660;13.226;2023-02-18T02:01:11;95075.28;;;5.93;100.00
30110;BME280;14965;50.660;13.226;2023-02-18T02:03:37;95077.25;;;5.92;100.00
30110;BME280;14965;50.660;13.226;2023-02-18T02:06:13;95060.78;;;5.89;100.00
30110;BME280;14965;50.660;13.226;2023-02-18T02:08:40;95061.97;;;5.88;100.00
30110;BME280;14965;50.660;13.226;2023-02-18T02:11:20;95061.22;;;5.87;100.00
30110;BME280;14965;50.660;13.226;2023-02-18T02:14:20;95063.53;;;5.89;100.00
30110;BME280;14965;50.660;13.226;2023-02-18T02:16:57;95056.53;;;5.84;100.00
30110;BME280;14965;50.660;13.226;2023-02-18T02:20:04;95064.38;;;5.82;100.00
30110;BME280;14965;50.660;13.226;2023-02-18T02:23:11;95063.97;;;5.84;100.00
30110;BME280;14965;50.660;13.226;2023-02-18T02:29:48;95071.41;;;5.83;100.00
30110;BME280;14965;50.660;13.226;2023-02-18T02:33:17;95073.75;;;5.85;100.00
30110;BME280;14965;50.660;13.226;2023-02-18T02:35:54;95071.44;;;5.80;100.00
30110;BME280;14965;50.660;13.226;2023-02-18T02:38:30;95074.19;;;5.80;100.00
30110;BME280;14965;50.660;13.226;2023-02-18T02:41:11;95078.88;;;5.79;100.00
30110;BME280;14965;50.660;13.226;2023-02-18T02:43:54;95068.34;;;5.78;100.00
30110;BME280;14965;50.660;13.226;2023-02-18T02:46:43;95077.72;;;5.77;100.00
30110;BME280;14965;50.660;13.226;2023-02-18T02:49:42;95074.59;;;5.78;100.00
30110;BME280;14965;50.660;13.226;2023-02-18T02:52:19;95087.09;;;5.79;100.00
30110;BME280;14965;50.660;13.226;2023-02-18T02:54:46;95073.78;;;5.81;100.00
30110;BME280;14965;50.660;13.226;2023-02-18T02:57:54;95070.25;;;5.81;100.00
30110;BME280;14965;50.660;13.226;2023-02-18T03:00:28;95058.16;;;5.78;100.00
30110;BME280;14965;50.660;13.226;2023-02-18T03:03:37;95056.97;;;5.79;100.00
30110;BME280;14965;50.660;13.226;2023-02-18T03:09:19;95074.97;;;5.77;100.00
30110;BME280;14965;50.660;13.226;2023-02-18T03:12:02;95075.38;;;5.79;100.00
30110;BME280;14965;50.660;13.226;2023-02-18T03:14:44;95064.41;;;5.79;100.00
30110;BME280;14965;50.660;13.226;2023-02-18T03:17:21;95063.25;;;5.76;100.00
30110;BME280;14965;50.660;13.226;2023-02-18T03:19:56;95051.13;;;5.73;100.00
30110;BME280;14965;50.660;13.226;2023-02-18T03:22:28;95068.75;;;5.72;100.00
30110;BME280;14965;50.660;13.226;2023-02-18T03:24:57;95070.31;;;5.73;100.00
30110;BME280;14965;50.660;13.226;2023-02-18T03:27:31;95066.75;;;5.77;100.00
30110;BME280;14965;50.660;13.226;2023-02-18T03:30:04;95070.69;;;5.75;100.00
30110;BME280;14965;50.660;13.226;2023-02-18T03:32:34;95069.13;;;5.78;100.00
30110;BME280;14965;50.660;13.226;2023-02-18T03:35:06;95062.03;;;5.81;100.00
30110;BME280;14965;50.660;13.226;2023-02-18T03:41:09;95073.75;;;5.85;100.00
30110;BME280;14965;50.660;13.226;2023-02-18T03:47:37;95074.19;;;5.80;100.00
30110;BME280;14965;50.660;13.226;2023-02-18T03:50:43;95077.72;;;5.77;100.00
30110;BME280;14965;50.660;13.226;2023-02-18T04:09:08;95065.75;;;5.56;100.00
30110;BME280;14965;50.660;13.226;2023-02-18T04:11:54;95062.59;;;5.54;100.00
30110;BME280;14965;50.660;13.226;2023-02-18T04:14:20;95073.16;;;5.56;100.00
30110;BME280;14965;50.660;13.226;2023-02-18T04:16:52;95075.53;;;5.54;100.00
30110;BME280;14965;50.660;13.226;2023-02-18T04:19:18;95081.38;;;5.56;100.00
30110;BME280;14965;50.660;13.226;2023-02-18T04:21:43;95069.66;;;5.52;100.00
30110;BME280;14965;50.660;13.226;2023-02-18T04:24:11;95077.84;;;5.55;100.00
30110;BME280;14965;50.660;13.226;2023-02-18T04:26:40;95071.22;;;5.56;100.00
30110;BME280;14965;50.660;13.226;2023-02-18T04:29:06;95072.00;;;5.53;100.00
30110;BME280;14965;50.660;13.226;2023-02-18T04:31:32;95070.81;;;5.54;100.00
30110;BME280;14965;50.660;13.226;2023-02-18T04:33:58;95059.88;;;5.54;100.00
30110;BME280;14965;50.660;13.226;2023-02-18T04:36:24;95061.06;;;5.53;100.00
30110;BME280;14965;50.660;13.226;2023-02-18T04:38:50;95053.59;;;5.57;100.00
30110;BME280;14965;50.660;13.226;2023-02-18T04:41:17;95048.47;;;5.59;100.00
30110;BME280;14965;50.660;13.226;2023-02-18T04:43:45;95058.28;;;5.60;100.00
30110;BME280;14965;50.660;13.226;2023-02-18T04:46:11;95057.84;;;5.65;100.00
30110;BME280;14965;50.660;13.226;2023-02-18T04:48:37;95046.13;;;5.65;100.00
30110;BME280;14965;50.660;13.226;2023-02-18T04:51:03;95048.44;;;5.66;100.00
30110;BME280;14965;50.660;13.226;2023-02-18T04:53:34;95037.91;;;5.65;100.00
30110;BME280;14965;50.660;13.226;2023-02-18T04:56:04;95034.00;;;5.62;100.00
30110;BME280;14965;50.660;13.226;2023-02-18T04:58:31;95039.06;;;5.64;100.00
30110;BME280;14965;50.660;13.226;2023-02-18T05:00:58;95042.59;;;5.64;100.00
30110;BME280;14965;50.660;13.226;2023-02-18T05:03:25;95037.13;;;5.64;100.00
30110;BME280;14965;50.660;13.226;2023-02-18T05:06:02;95041.78;;;5.67;100.00
30110;BME280;14965;50.660;13.226;2023-02-18T05:08:35;95044.50;;;5.67;100.00
30110;BME280;14965;50.660;13.226;2023-02-18T05:11:04;95045.72;;;5.63;100.00
30110;BME280;14965;50.660;13.226;2023-02-18T05:13:41;95050.84;;;5.61;100.00
30110;BME280;14965;50.660;13.226;2023-02-18T05:16:12;95049.25;;;5.60;100.00
30110;BME280;14965;50.660;13.226;2023-02-18T05:18:41;95041.84;;;5.60;100.00
30110;BME280;14965;50.660;13.226;2023-02-18T05:21:10;95039.88;;;5.61;100.00
30110;BME280;14965;50.660;13.226;2023-02-18T05:23:47;95041.44;;;5.58;100.00
30110;BME280;14965;50.660;13.226;2023-02-18T05:26:19;95028.16;;;5.57;100.00
30110;BME280;14965;50.660;13.226;2023-02-18T05:28:49;95030.09;;;5.60;100.00
30110;BME280;14965;50.660;13.226;2023-02-18T05:31:18;95023.44;;;5.61;100.00
30110;BME280;14965;50.660;13.226;2023-02-18T05:33:53;95012.09;;;5.59;100.00
30110;BME280;14965;50.660;13.226;2023-02-18T05:36:40;95016.78;;;5.58;100.00
30110;BME280;14965;50.660;13.226;2023-02-18T05:39:45;95012.50;;;5.57;100.00
30110;BME280;14965;50.660;13.226;2023-02-18T05:42:59;95006.25;;;5.57;100.00
30110;BME280;14965;50.660;13.226;2023-02-18T05:45:42;94996.88;;;5.54;100.00
30110;BME280;14965;50.660;13.226;2023-02-18T05:51:41;94990.97;;;5.56;100.00
30110;BME280;14965;50.660;13.226;2023-02-18T05:54:23;95003.91;;;5.55;100.00
30110;BME280;14965;50.660;13.226;2023-02-18T05:57:39;95005.47;;;5.56;100.00
30110;BME280;14965;50.660;13.226;2023-02-18T06:00:44;94984.34;;;5.57;100.00
30110;BME280;14965;50.660;13.226;2023-02-18T06:03:45;94996.84;;;5.58;100.00
30110;BME280;14965;50.660;13.226;2023-02-18T06:06:30;94994.88;;;5.58;100.00
30110;BME280;14965;50.660;13.226;2023-02-18T06:09:05;94990.94;;;5.59;100.00
30110;BME280;14965;50.660;13.226;2023-02-18T06:11:55;94981.97;;;5.55;100.00
30110;BME280;14965;50.660;13.226;2023-02-18T06:14:53;94987.47;;;5.55;100.00
30110;BME280;14965;50.660;13.226;2023-02-18T06:17:33;94989.03;;;5.56;100.00
30110;BME280;14965;50.660;13.226;2023-02-18T06:20:10;94984.69;;;5.59;100.00
30110;BME280;14965;50.660;13.226;2023-02-18T06:22:51;94983.50;;;5.60;100.00
30110;BME280;14965;50.660;13.226;2023-02-18T06:25:27;94980.75;;;5.60;100.00
30110;BME280;14965;50.660;13.226;2023-02-18T06:28:01;94981.56;;;5.60;100.00
30110;BME280;14965;50.660;13.226;2023-02-18T06:30:48;94981.53;;;5.64;100.00
30110;BME280;14965;50.660;13.226;2023-02-18T06:33:21;94977.19;;;5.66;100.00
30110;BME280;14965;50.660;13.226;2023-02-18T06:36:19;94975.25;;;5.67;100.00
30110;BME280;14965;50.660;13.226;2023-02-18T06:38:52;94966.59;;;5.68;100.00
30110;BME280;14965;50.660;13.226;2023-02-18T06:41:18;94965.44;;;5.69;100.00
30110;BME280;14965;50.660;13.226;2023-02-18T06:43:49;94952.91;;;5.68;100.00
30110;BME280;14965;50.660;13.226;2023-02-18T06:46:24;94960.75;;;5.66;100.00
30110;BME280;14965;50.660;13.226;2023-02-18T06:48:58;94949.00;;;5.69;100.00
30110;BME280;14965;50.660;13.226;2023-02-18T06:51:30;94951.75;;;5.69;100.00
30110;BME280;14965;50.660;13.226;2023-02-18T06:54:06;94965.81;;;5.71;100.00
30110;BME280;14965;50.660;13.226;2023-02-18T06:56:51;94948.97;;;5.73;100.00
30110;BME280;14965;50.660;13.226;2023-02-18T06:59:25;94945.81;;;5.74;100.00
30110;BME280;14965;50.660;13.226;2023-02-18T07:01:57;94957.56;;;5.75;100.00
30110;BME280;14965;50.660;13.226;2023-02-18T07:04:39;94959.88;;;5.77;100.00
30110;BME280;14965;50.660;13.226;2023-02-18T07:07:13;94939.13;;;5.79;100.00
30110;BME280;14965;50.660;13.226;2023-02-18T07:09:39;94948.50;;;5.82;100.00
30110;BME280;14965;50.660;13.226;2023-02-18T07:12:06;94948.84;;;5.87;100.00
30110;BME280;14965;50.660;13.226;2023-02-18T07:14:35;94942.53;;;5.90;100.00
30110;BME280;14965;50.660;13.226;2023-02-18T07:17:07;94946.84;;;5.95;100.00
30110;BME280;14965;50.660;13.226;2023-02-18T07:19:35;94943.69;;;5.96;100.00
30110;BME280;14965;50.660;13.226;2023-02-18T07:22:01;94949.13;;;6.00;100.00
30110;BME280;14965;50.660;13.226;2023-02-18T07:24:29;94939.34;;;5.99;100.00
30110;BME280;14965;50.660;13.226;2023-02-18T07:26:57;94938.50;;;6.06;100.00
30110;BME280;14965;50.660;13.226;2023-02-18T07:29:40;94940.38;;;6.12;100.00
30110;BME280;14965;50.660;13.226;2023-02-18T07:32:15;94936.81;;;6.19;100.00
30110;BME280;14965;50.660;13.226;2023-02-18T07:34:52;94923.00;;;6.26;100.00
30110;BME280;14965;50.660;13.226;2023-02-18T07:37:19;94920.22;;;6.30;100.00
30110;BME280;14965;50.660;13.226;2023-02-18T07:40:08;94917.50;;;6.26;100.00
30110;BME280;14965;50.660;13.226;2023-02-18T07:42:43;94905.00;;;6.25;100.00
30110;BME280;14965;50.660;13.226;2023-02-18T07:45:19;94915.88;;;6.32;100.00
30110;BME280;14965;50.660;13.226;2023-02-18T07:48:14;94914.28;;;6.35;100.00
30110;BME280;14965;50.660;13.226;2023-02-18T07:50:50;94903.66;;;6.40;100.00
30110;BME280;14965;50.660;13.226;2023-02-18T07:53:36;94909.44;;;6.46;100.00
30110;BME280;14965;50.660;13.226;2023-02-18T07:56:08;94905.13;;;6.48;100.00
30110;BME280;14965;50.660;13.226;2023-02-18T07:58:42;94902.75;;;6.47;100.00
30110;BME280;14965;50.660;13.226;2023-02-18T08:01:23;94903.91;;;6.49;100.00
30110;BME280;14965;50.660;13.226;2023-02-18T08:03:51;94897.53;;;6.56;100.00
30110;BME280;14965;50.660;13.226;2023-02-18T08:06:33;94900.25;;;6.60;100.00
30110;BME280;14965;50.660;13.226;2023-02-18T08:09:12;94906.84;;;6.66;100.00
30110;BME280;14965;50.660;13.226;2023-02-18T08:11:41;94902.41;;;6.76;100.00
30110;BME280;14965;50.660;13.226;2023-02-18T08:14:11;94898.78;;;6.82;100.00
30110;BME280;14965;50.660;13.226;2023-02-18T08:16:44;94893.25;;;6.86;100.00
30110;BME280;14965;50.660;13.226;2023-02-18T08:19:19;94889.56;;;6.96;100.00
30110;BME280;14965;50.660;13.226;2023-02-18T08:21:50;94887.97;;;6.98;100.00
30110;BME280;14965;50.660;13.226;2023-02-18T08:24:17;94889.81;;;7.05;100.00
30110;BME280;14965;50.660;13.226;2023-02-18T08:26:43;94883.50;;;7.08;100.00
30110;BME280;14965;50.660;13.226;2023-02-18T08:29:12;94890.59;;;7.06;100.00
30110;BME280;14965;50.660;13.226;2023-02-18T08:31:38;94883.94;;;7.07;100.00
30110;BME280;14965;50.660;13.226;2023-02-18T08:34:03;94878.06;;;7.05;100.00
30110;BME280;14965;50.660;13.226;2023-02-18T08:36:30;94876.41;;;7.11;100.00
30110;BME280;14965;50.660;13.226;2023-02-18T08:38:57;94871.22;;;7.16;100.00
30110;BME280;14965;50.660;13.226;2023-02-18T08:41:23;94858.16;;;7.24;100.00
30110;BME280;14965;50.660;13.226;2023-02-18T08:43:49;94864.38;;;7.28;100.00
30110;BME280;14965;50.660;13.226;2023-02-18T08:46:16;94849.00;;;7.31;100.00
30110;BME280;14965;50.660;13.226;2023-02-18T08:48:42;94837.06;;;7.41;100.00
30110;BME280;14965;50.660;13.226;2023-02-18T08:51:14;94857.75;;;7.49;100.00
30110;BME280;14965;50.660;13.226;2023-02-18T08:53:40;94845.84;;;7.56;100.00
30110;BME280;14965;50.660;13.226;2023-02-18T08:56:09;94842.47;;;7.68;100.00
30110;BME280;14965;50.660;13.226;2023-02-18T08:58:35;94858.19;;;7.67;100.00
30110;BME280;14965;50.660;13.226;2023-02-18T09:01:01;94850.50;;;7.59;100.00
30110;BME280;14965;50.660;13.226;2023-02-18T09:03:27;94843.84;;;7.56;100.00
30110;BME280;14965;50.660;13.226;2023-02-18T09:05:53;94849.97;;;7.44;100.00
30110;BME280;14965;50.660;13.226;2023-02-18T09:08:19;94855.59;;;7.37;100.00
30110;BME280;14965;50.660;13.226;2023-02-18T09:10:45;94854.88;;;7.33;100.00
30110;BME280;14965;50.660;13.226;2023-02-18T09:13:12;94839.66;;;7.28;100.00
30110;BME280;14965;50.660;13.226;2023-02-18T09:15:38;94838.44;;;7.29;100.00
30110;BME280;14965;50.660;13.226;2023-02-18T09:18:04;94830.63;;;7.28;100.00
30110;BME280;14965;50.660;13.226;2023-02-18T09:20:30;94833.28;;;7.31;100.00
30110;BME280;14965;50.660;13.226;2023-02-18T09:22:55;94821.84;;;7.36;100.00
30110;BME280;14965;50.660;13.226;2023-02-18T09:25:21;94828.53;;;7.35;100.00
30110;BME280;14965;50.660;13.226;2023-02-18T09:27:47;94817.47;;;7.39;100.00
30110;BME280;14965;50.660;13.226;2023-02-18T09:30:15;94822.25;;;7.35;100.00
30110;BME280;14965;50.660;13.226;2023-02-18T09:32:40;94830.88;;;7.37;100.00
30110;BME280;14965;50.660;13.226;2023-02-18T09:35:07;94828.91;;;7.37;100.00
30110;BME280;14965;50.660;13.226;2023-02-18T09:37:33;94823.75;;;7.39;100.00
30110;BME280;14965;50.660;13.226;2023-02-18T09:39:59;94815.50;;;7.39;100.00
30110;BME280;14965;50.660;13.226;2023-02-18T09:42:31;94803.75;;;7.39;100.00
30110;BME280;14965;50.660;13.226;2023-02-18T09:45:02;94811.16;;;7.42;100.00
30110;BME280;14965;50.660;13.226;2023-02-18T09:47:35;94805.72;;;7.38;100.00
30110;BME280;14965;50.660;13.226;2023-02-18T09:50:07;94806.44;;;7.42;100.00
30110;BME280;14965;50.660;13.226;2023-02-18T09:52:38;94799.31;;;7.45;100.00
30110;BME280;14965;50.660;13.226;2023-02-18T09:55:19;94800.16;;;7.42;100.00
30110;BME280;14965;50.660;13.226;2023-02-18T09:57:48;94798.25;;;7.39;100.00
30110;BME280;14965;50.660;13.226;2023-02-18T10:00:21;94791.16;;;7.41;100.00
30110;BME280;14965;50.660;13.226;2023-02-18T10:02:55;94787.97;;;7.43;100.00
30110;BME280;14965;50.660;13.226;2023-02-18T10:05:23;94771.47;;;7.43;100.00
30110;BME280;14965;50.660;13.226;2023-02-18T10:07:55;94769.09;;;7.45;100.00
30110;BME280;14965;50.660;13.226;2023-02-18T10:10:39;94743.09;;;7.49;100.00
30110;BME280;14965;50.660;13.226;2023-02-18T10:13:13;94760.31;;;7.54;100.00
30110;BME280;14965;50.660;13.226;2023-02-18T10:15:40;94768.94;;;7.52;100.00
30110;BME280;14965;50.660;13.226;2023-02-18T10:18:21;94773.56;;;7.59;100.00
30110;BME280;14965;50.660;13.226;2023-02-18T10:20:51;94761.78;;;7.58;100.00
30110;BME280;14965;50.660;13.226;2023-02-18T10:23:19;94767.63;;;7.60;100.00
30110;BME280;14965;50.660;13.226;2023-02-18T10:25:48;94756.63;;;7.60;100.00
30110;BME280;14965;50.660;13.226;2023-02-18T10:28:21;94764.88;;;7.60;100.00
30110;BME280;14965;50.660;13.226;2023-02-18T10:30:56;94747.13;;;7.65;100.00
30110;BME280;14965;50.660;13.226;2023-02-18T10:33:34;94728.50;;;7.72;100.00
30110;BME280;14965;50.660;13.226;2023-02-18T10:36:20;94744.16;;;7.76;100.00
30110;BME280;14965;50.660;13.226;2023-02-18T10:39:14;94726.47;;;7.77;100.00
30110;BME280;14965;50.660;13.226;2023-02-18T10:41:54;94737.06;;;7.78;100.00
30110;BME280;14965;50.660;13.226;2023-02-18T10:44:29;94723.66;;;7.80;100.00
30110;BME280;14965;50.660;13.226;2023-02-18T10:47:17;94718.59;;;7.79;100.00
30110;BME280;14965;50.660;13.226;2023-02-18T10:49:58;94728.25;;;7.87;100.00
30110;BME280;14965;50.660;13.226;2023-02-18T10:52:27;94713.72;;;7.86;100.00
30110;BME280;14965;50.660;13.226;2023-02-18T10:54:58;94724.34;;;7.84;100.00
30110;BME280;14965;50.660;13.226;2023-02-18T10:57:25;94711.75;;;7.87;100.00
30110;BME280;14965;50.660;13.226;2023-02-18T11:00:03;94711.75;;;7.87;100.00
30110;BME280;14965;50.660;13.226;2023-02-18T11:02:30;94713.59;;;7.73;100.00
30110;BME280;14965;50.660;13.226;2023-02-18T11:05:11;94701.91;;;7.69;100.00
30110;BME280;14965;50.660;13.226;2023-02-18T11:07:45;94708.22;;;7.66;100.00
30110;BME280;14965;50.660;13.226;2023-02-18T11:10:17;94716.81;;;7.68;100.00
30110;BME280;14965;50.660;13.226;2023-02-18T11:12:50;94689.69;;;7.70;100.00
30110;BME280;14965;50.660;13.226;2023-02-18T11:15:20;94678.63;;;7.74;100.00
30110;BME280;14965;50.660;13.226;2023-02-18T11:17:49;94689.88;;;7.80;100.00
30110;BME280;14965;50.660;13.226;2023-02-18T11:20:29;94689.56;;;7.78;100.00
30110;BME280;14965;50.660;13.226;2023-02-18T11:23:18;94677.50;;;7.71;100.00
30110;BME280;14965;50.660;13.226;2023-02-18T11:25:58;94689.69;;;7.70;100.00
30110;BME280;14965;50.660;13.226;2023-02-18T11:28:36;94671.28;;;7.67;100.00
30110;BME280;14965;50.660;13.226;2023-02-18T11:31:05;94691.88;;;7.59;100.00
30110;BME280;14965;50.660;13.226;2023-02-18T11:33:36;94677.03;;;7.57;100.00
30110;BME280;14965;50.660;13.226;2023-02-18T11:36:21;94676.59;;;7.58;100.00
30110;BME280;14965;50.660;13.226;2023-02-18T11:38:52;94668.69;;;7.60;100.00
30110;BME280;14965;50.660;13.226;2023-02-18T11:41:27;94658.19;;;7.55;100.00
30110;BME280;14965;50.660;13.226;2023-02-18T11:43:54;94672.00;;;7.52;100.00
30110;BME280;14965;50.660;13.226;2023-02-18T11:46:22;94658.69;;;7.50;100.00
30110;BME280;14965;50.660;13.226;2023-02-18T11:48:50;94664.97;;;7.51;100.00
30110;BME280;14965;50.660;13.226;2023-02-18T11:51:23;94658.34;;;7.48;100.00
30110;BME280;14965;50.660;13.226;2023-02-18T11:53:57;94663.41;;;7.49;100.00
30110;BME280;14965;50.660;13.226;2023-02-18T11:56:24;94674.13;;;7.44;100.00
30110;BME280;14965;50.660;13.226;2023-02-18T11:58:51;94669.47;;;7.41;100.00
30110;BME280;14965;50.660;13.226;2023-02-18T12:01:30;94676.66;;;7.35;100.00
30110;BME280;14965;50.660;13.226;2023-02-18T12:04:06;94650.75;;;7.36;100.00
30110;BME280;14965;50.660;13.226;2023-02-18T12:06:38;94649.25;;;7.31;100.00
30110;BME280;14965;50.660;13.226;2023-02-18T12:09:18;94652.50;;;7.26;100.00
30110;BME280;14965;50.660;13.226;2023-02-18T12:11:50;94660.84;;;7.19;100.00
30110;BME280;14965;50.660;13.226;2023-02-18T12:14:19;94646.09;;;7.13;100.00
30110;BME280;14965;50.660;13.226;2023-02-18T12:17:10;94650.75;;;7.16;100.00
30110;BME280;14965;50.660;13.226;2023-02-18T12:20:07;94643.34;;;7.13;100.00
30110;BME280;14965;50.660;13.226;2023-02-18T12:22:44;94641.03;;;7.11;100.00
30110;BME280;14965;50.660;13.226;2023-02-18T12:25:28;94637.91;;;7.09;100.00
30110;BME280;14965;50.660;13.226;2023-02-18T12:28:16;94640.78;;;7.02;100.00
30110;BME280;14965;50.660;13.226;2023-02-18T12:31:28;94646.41;;;6.95;100.00
30110;BME280;14965;50.660;13.226;2023-02-18T12:34:19;94640.22;;;6.91;99.02
30110;BME280;14965;50.660;13.226;2023-02-18T12:37:07;94644.56;;;6.88;99.76
30110;BME280;14965;50.660;13.226;2023-02-18T12:40:01;94631.34;;;6.83;99.40
30110;BME280;14965;50.660;13.226;2023-02-18T12:42:45;94669.81;;;6.80;99.74
30110;BME280;14965;50.660;13.226;2023-02-18T12:45:43;94648.69;;;6.77;98.96
30110;BME280;14965;50.660;13.226;2023-02-18T12:48:34;94621.69;;;6.75;98.79
30110;BME280;14965;50.660;13.226;2023-02-18T12:51:23;94614.16;;;6.79;98.73
30110;BME280;14965;50.660;13.226;2023-02-18T12:54:12;94618.03;;;6.82;98.45
30110;BME280;14965;50.660;13.226;2023-02-18T12:56:58;94618.03;;;6.82;96.27
30110;BME280;14965;50.660;13.226;2023-02-18T13:03:59;94625.28;;;6.92;96.58
30110;BME280;14965;50.660;13.226;2023-02-18T13:06:50;94619.69;;;6.99;95.26
30110;BME280;14965;50.660;13.226;2023-02-18T13:09:37;94617.69;;;6.99;93.58
30110;BME280;14965;50.660;13.226;2023-02-18T13:12:16;94639.72;;;6.96;93.70
30110;BME280;14965;50.660;13.226;2023-02-18T13:14:47;94640.06;;;6.98;92.73
30110;BME280;14965;50.660;13.226;2023-02-18T13:17:16;94627.16;;;6.98;91.04
30110;BME280;14965;50.660;13.226;2023-02-18T13:19:49;94630.22;;;7.01;90.32
30110;BME280;14965;50.660;13.226;2023-02-18T13:22:23;94627.84;;;7.03;91.85
30110;BME280;14965;50.660;13.226;2023-02-18T13:24:53;94618.47;;;7.00;90.22
30110;BME280;14965;50.660;13.226;2023-02-18T13:27:28;94610.31;;;6.96;88.86
30110;BME280;14965;50.660;13.226;2023-02-18T13:30:17;94602.50;;;6.95;88.80
30110;BME280;14965;50.660;13.226;2023-02-18T13:32:58;94607.13;;;6.98;89.45
30110;BME280;14965;50.660;13.226;2023-02-18T13:35:33;94618.09;;;6.98;87.60
30110;BME280;14965;50.660;13.226;2023-02-18T13:38:25;94635.38;;;6.98;87.93
30110;BME280;14965;50.660;13.226;2023-02-18T13:40:58;94625.22;;;6.95;87.45
30110;BME280;14965;50.660;13.226;2023-02-18T13:43:31;94624.47;;;6.95;89.44
30110;BME280;14965;50.660;13.226;2023-02-18T13:46:07;94626.13;;;6.89;88.01
30110;BME280;14965;50.660;13.226;2023-02-18T13:48:42;94613.66;;;6.84;88.63
30110;BME280;14965;50.660;13.226;2023-02-18T13:51:11;94633.38;;;6.79;88.86
30110;BME280;14965;50.660;13.226;2023-02-18T13:53:41;94618.88;;;6.79;89.47
30110;BME280;14965;50.660;13.226;2023-02-18T13:56:10;94617.03;;;6.72;89.68
30110;BME280;14965;50.660;13.226;2023-02-18T13:58:51;94604.94;;;6.69;89.38
30110;BME280;14965;50.660;13.226;2023-02-18T14:01:37;94613.56;;;6.68;89.14
30110;BME280;14965;50.660;13.226;2023-02-18T14:07:49;94611.31;;;6.63;89.68
30110;BME280;14965;50.660;13.226;2023-02-18T14:10:30;94617.56;;;6.63;89.35